sensor_id;sensor_type;location;lat;lon;timestamp;pressure;altitude;pressure_sealevel;temperature;humidity
3917;BME280;1973;50.518;7.318;2022-07-04T00:02:17;101289.19;;;16.98;100.00
3917;BME280;1973;50.518;7.318;2022-07-04T00:04:44;101290.75;;;16.94;100.00
3917;BME280;1973;50.518;7.318;2022-07-04T00:07:11;101298.47;;;16.92;100.00
3917;BME280;1973;50.518;7.318;2022-07-04T00:09:37;101297.31;;;16.88;100.00
3917;BME280;1973;50.518;7.318;2022-07-04T00:12:04;101295.25;;;16.84;100.00
3917;BME280;1973;50.518;7.318;2022-07-04T00:14:31;101297.69;;;16.80;100.00
3917;BME280;1973;50.518;7.318;2022-07-04T00:16:57;101299.00;;;16.78;100.00
3917;BME280;1973;50.518;7.318;2022-07-04T00:19:24;101295.84;;;16.74;100.00
3917;BME280;1973;50.518;7.318;2022-07-04T00:21:50;101292.72;;;16.71;100.00
3917;BME280;1973;50.518;7.318;2022-07-04T00:24:16;101286.22;;;16.65;100.00
3917;BME280;1973;50.518;7.318;2022-07-04T00:26:43;101290.56;;;16.61;100.00
3917;BME280;1973;50.518;7.318;2022-07-04T00:29:09;101287.19;;;16.59;100.00
3917;BME280;1973;50.518;7.318;2022-07-04T00:31:36;101285.97;;;16.55;100.00
3917;BME280;1973;50.518;7.318;2022-07-04T00:34:02;101284.75;;;16.51;100.00
3917;BME280;1973;50.518;7.318;2022-07-04T00:36:29;101277.97;;;16.47;100.00
3917;BME280;1973;50.518;7.318;2022-07-04T00:38:55;101274.59;;;16.45;100.00
3917;BME280;1973;50.518;7.318;2022-07-04T00:41:22;101274.22;;;16.41;100.00
3917;BME280;1973;50.518;7.318;2022-07-04T00:44:02;101272.56;;;16.40;100.00
3917;BME280;1973;50.518;7.318;2022-07-04T00:46:39;101277.13;;;16.35;100.00
3917;BME280;1973;50.518;7.318;2022-07-04T00:49:06;101274.84;;;16.32;100.00
3917;BME280;1973;50.518;7.318;2022-07-04T00:51:34;101280.25;;;16.27;100.00
3917;BME280;1973;50.518;7.318;2022-07-04T00:54:01;101286.53;;;16.22;100.00
3917;BME280;1973;50.518;7.318;2022-07-04T00:56:27;101302.84;;;16.19;100.00
3917;BME280;1973;50.518;7.318;2022-07-04T00:58:54;101287.16;;;16.13;100.00
3917;BME280;1973;50.518;7.318;2022-07-04T01:01:21;101301.75;;;16.08;100.00
3917;BME280;1973;50.518;7.318;2022-07-04T01:03:48;101294.16;;;16.03;100.00
3917;BME280;1973;50.518;7.318;2022-07-04T01:06:17;101301.72;;;15.96;100.00
3917;BME280;1973;50.518;7.318;2022-07-04T01:08:45;101290.03;;;15.94;100.00
3917;BME280;1973;50.518;7.318;2022-07-04T01:11:12;101293.28;;;15.91;100.00
3917;BME280;1973;50.518;7.318;2022-07-04T01:13:39;101302.94;;;15.89;100.00
3917;BME280;1973;50.518;7.318;2022-07-04T01:16:09;101304.25;;;15.86;100.00
3917;BME280;1973;50.518;7.318;2022-07-04T01:18:37;101306.91;;;15.81;100.00
3917;BME280;1973;50.518;7.318;2022-07-04T01:21:04;101300.13;;;15.77;100.00
3917;BME280;1973;50.518;7.318;2022-07-04T01:23:31;101305.31;;;15.74;100.00
3917;BME280;1973;50.518;7.318;2022-07-04T01:25:57;101314.94;;;15.71;100.00
3917;BME280;1973;50.518;7.318;2022-07-04T01:28:24;101321.63;;;15.70;100.00
3917;BME280;1973;50.518;7.318;2022-07-04T01:30:51;101317.13;;;15.69;100.00
3917;BME280;1973;50.518;7.318;2022-07-04T01:33:18;101320.13;;;15.68;100.00
3917;BME280;1973;50.518;7.318;2022-07-04T01:35:46;101319.91;;;15.69;100.00
3917;BME280;1973;50.518;7.318;2022-07-04T01:38:13;101327.59;;;15.67;100.00
3917;BME280;1973;50.518;7.318;2022-07-04T01:40:40;101326.78;;;15.67;100.00
3917;BME280;1973;50.518;7.318;2022-07-04T01:43:07;101332.34;;;15.67;100.00
3917;BME280;1973;50.518;7.318;2022-07-04T01:45:33;101339.81;;;15.66;100.00
3917;BME280;1973;50.518;7.318;2022-07-04T01:48:08;101343.44;;;15.67;100.00
3917;BME280;1973;50.518;7.318;2022-07-04T01:50:36;101342.22;;;15.63;100.00
3917;BME280;1973;50.518;7.318;2022-07-04T01:53:02;101347.41;;;15.59;100.00
3917;BME280;1973;50.518;7.318;2022-07-04T01:55:30;101350.03;;;15.54;100.00
3917;BME280;1973;50.518;7.318;2022-07-04T01:57:56;101356.50;;;15.48;100.00
3917;BME280;1973;50.518;7.318;2022-07-04T02:00:24;101355.25;;;15.44;100.00
3917;BME280;1973;50.518;7.318;2022-07-04T02:03:09;101358.50;;;15.41;100.00
3917;BME280;1973;50.518;7.318;2022-07-04T02:05:36;101357.28;;;15.37;100.00
3917;BME280;1973;50.518;7.318;2022-07-04T02:08:06;101362.81;;;15.37;100.00
3917;BME280;1973;50.518;7.318;2022-07-04T02:10:33;101362.19;;;15.35;100.00
3917;BME280;1973;50.518;7.318;2022-07-04T02:13:01;101360.50;;;15.34;100.00
3917;BME280;1973;50.518;7.318;2022-07-04T02:15:34;101355.41;;;15.31;100.00
3917;BME280;1973;50.518;7.318;2022-07-04T02:18:03;101366.97;;;15.28;100.00
3917;BME280;1973;50.518;7.318;2022-07-04T02:20:30;101371.31;;;15.24;100.00
3917;BME280;1973;50.518;7.318;2022-07-04T02:22:57;101368.16;;;15.20;100.00
3917;BME280;1973;50.518;7.318;2022-07-04T02:25:24;101357.75;;;15.16;100.00
3917;BME280;1973;50.518;7.318;2022-07-04T02:27:51;101368.06;;;15.08;100.00
3917;BME280;1973;50.518;7.318;2022-07-04T02:30:17;101362.78;;;15.07;100.00
3917;BME280;1973;50.518;7.318;2022-07-04T02:32:44;101366.84;;;15.04;100.00
3917;BME280;1973;50.518;7.318;2022-07-04T02:35:11;101370.72;;;15.03;100.00
3917;BME280;1973;50.518;7.318;2022-07-04T02:37:39;101370.06;;;15.01;100.00
3917;BME280;1973;50.518;7.318;2022-07-04T02:40:06;101378.84;;;14.98;100.00
3917;BME280;1973;50.518;7.318;2022-07-04T02:42:34;101377.63;;;14.94;100.00
3917;BME280;1973;50.518;7.318;2022-07-04T02:45:01;101376.38;;;14.90;100.00
3917;BME280;1973;50.518;7.318;2022-07-04T02:47:27;101371.31;;;14.87;100.00
3917;BME280;1973;50.518;7.318;2022-07-04T02:49:54;101371.75;;;14.84;100.00
3917;BME280;1973;50.518;7.318;2022-07-04T02:52:20;101375.00;;;14.81;100.00
3917;BME280;1973;50.518;7.318;2022-07-04T02:54:47;101377.13;;;14.79;100.00
3917;BME280;1973;50.518;7.318;2022-07-04T02:57:15;101386.53;;;14.78;100.00
3917;BME280;1973;50.518;7.318;2022-07-04T02:59:42;101373.59;;;14.72;100.00
3917;BME280;1973;50.518;7.318;2022-07-04T03:02:08;101385.75;;;14.71;100.00
3917;BME280;1973;50.518;7.318;2022-07-04T03:04:35;101385.34;;;14.68;100.00
3917;BME280;1973;50.518;7.318;2022-07-04T03:07:02;101385.81;;;14.65;100.00
3917;BME280;1973;50.518;7.318;2022-07-04T03:09:28;101387.13;;;14.62;100.00
3917;BME280;1973;50.518;7.318;2022-07-04T03:11:55;101384.81;;;14.59;100.00
3917;BME280;1973;50.518;7.318;2022-07-04T03:14:21;101383.56;;;14.55;100.00
3917;BME280;1973;50.518;7.318;2022-07-04T03:16:47;101387.41;;;14.54;100.00
3917;BME280;1973;50.518;7.318;2022-07-04T03:19:14;101387.88;;;14.51;100.00
3917;BME280;1973;50.518;7.318;2022-07-04T03:21:43;101387.47;;;14.47;100.00
3917;BME280;1973;50.518;7.318;2022-07-04T03:24:10;101400.31;;;14.42;100.00
3917;BME280;1973;50.518;7.318;2022-07-04T03:26:36;101400.75;;;14.39;100.00
3917;BME280;1973;50.518;7.318;2022-07-04T03:29:03;101404.59;;;14.38;100.00
3917;BME280;1973;50.518;7.318;2022-07-04T03:31:29;101409.53;;;14.36;100.00
3917;BME280;1973;50.518;7.318;2022-07-04T03:33:56;101411.44;;;14.35;100.00
3917;BME280;1973;50.518;7.318;2022-07-04T03:36:23;101409.31;;;14.31;100.00
3917;BME280;1973;50.518;7.318;2022-07-04T03:38:49;101410.41;;;14.30;100.00
3917;BME280;1973;50.518;7.318;2022-07-04T03:41:16;101411.47;;;14.29;100.00
3917;BME280;1973;50.518;7.318;2022-07-04T03:43:42;101415.09;;;14.29;100.00
3917;BME280;1973;50.518;7.318;2022-07-04T03:46:09;101418.72;;;14.30;100.00
3917;BME280;1973;50.518;7.318;2022-07-04T03:48:35;101413.19;;;14.30;100.00
3917;BME280;1973;50.518;7.318;2022-07-04T03:51:02;101417.63;;;14.31;100.00
3917;BME280;1973;50.518;7.318;2022-07-04T03:53:29;101421.50;;;14.30;100.00
3917;BME280;1973;50.518;7.318;2022-07-04T03:55:55;101423.63;;;14.28;100.00
3917;BME280;1973;50.518;7.318;2022-07-04T03:58:22;101428.56;;;14.26;100.00
3917;BME280;1973;50.518;7.318;2022-07-04T04:00:48;101425.13;;;14.24;100.00
3917;BME280;1973;50.518;7.318;2022-07-04T04:03:15;101429.00;;;14.23;100.00
3917;BME280;1973;50.518;7.318;2022-07-04T04:06:00;101431.97;;;14.21;100.00
3917;BME280;1973;50.518;7.318;2022-07-04T04:08:26;101432.44;;;14.18;100.00
3917;BME280;1973;50.518;7.318;2022-07-04T04:10:53;101427.97;;;14.17;100.00
3917;BME280;1973;50.518;7.318;2022-07-04T04:13:19;101425.19;;;14.17;100.00
3917;BME280;1973;50.518;7.318;2022-07-04T04:15:46;101435.22;;;14.18;100.00
3917;BME280;1973;50.518;7.318;2022-07-04T04:18:12;101434.09;;;14.19;100.00
3917;BME280;1973;50.518;7.318;2022-07-04T04:20:39;101425.19;;;14.17;100.00
3917;BME280;1973;50.518;7.318;2022-07-04T04:23:05;101434.34;;;14.18;100.00
3917;BME280;1973;50.518;7.318;2022-07-04T04:25:31;101437.13;;;14.18;100.00
3917;BME280;1973;50.518;7.318;2022-07-04T04:27:58;101434.09;;;14.19;100.00
3917;BME280;1973;50.518;7.318;2022-07-04T04:30:24;101445.19;;;14.19;100.00
3917;BME280;1973;50.518;7.318;2022-07-04T04:32:51;101442.22;;;14.21;100.00
3917;BME280;1973;50.518;7.318;2022-07-04T04:35:17;101438.38;;;14.22;100.00
3917;BME280;1973;50.518;7.318;2022-07-04T04:37:45;101429.00;;;14.23;100.00
3917;BME280;1973;50.518;7.318;2022-07-04T04:40:12;101436.84;;;14.26;100.00
3917;BME280;1973;50.518;7.318;2022-07-04T04:42:38;101435.75;;;14.27;100.00
3917;BME280;1973;50.518;7.318;2022-07-04T04:45:05;101437.88;;;14.31;100.00
3917;BME280;1973;50.518;7.318;2022-07-04T04:47:32;101434.88;;;14.33;100.00
3917;BME280;1973;50.518;7.318;2022-07-04T04:49:58;101441.72;;;14.37;100.00
3917;BME280;1973;50.518;7.318;2022-07-04T04:52:24;101437.03;;;14.37;100.00
3917;BME280;1973;50.518;7.318;2022-07-04T04:54:51;101440.41;;;14.39;100.00
3917;BME280;1973;50.518;7.318;2022-07-04T04:57:17;101443.38;;;14.38;100.00
3917;BME280;1973;50.518;7.318;2022-07-04T04:59:44;101448.50;;;14.41;100.00
3917;BME280;1973;50.518;7.318;2022-07-04T05:02:10;101445.47;;;14.42;100.00
3917;BME280;1973;50.518;7.318;2022-07-04T05:04:42;101448.50;;;14.41;100.00
3917;BME280;1973;50.518;7.318;2022-07-04T05:07:09;101445.47;;;14.42;100.00
3917;BME280;1973;50.518;7.318;2022-07-04T05:09:36;101448.03;;;14.44;100.00
3917;BME280;1973;50.518;7.318;2022-07-04T05:12:02;101445.44;;;14.49;100.00
3917;BME280;1973;50.518;7.318;2022-07-04T05:14:29;101444.53;;;14.55;100.00
3917;BME280;1973;50.518;7.318;2022-07-04T05:16:56;101443.88;;;14.59;100.00
3917;BME280;1973;50.518;7.318;2022-07-04T05:19:22;101439.94;;;14.67;100.00
3917;BME280;1973;50.518;7.318;2022-07-04T05:21:49;101441.38;;;14.76;100.00
3917;BME280;1973;50.518;7.318;2022-07-04T05:24:16;101446.63;;;14.84;100.00
3917;BME280;1973;50.518;7.318;2022-07-04T05:26:42;101438.63;;;14.94;100.00
3917;BME280;1973;50.518;7.318;2022-07-04T05:29:09;101444.28;;;15.06;100.00
3917;BME280;1973;50.518;7.318;2022-07-04T05:31:35;101452.44;;;15.19;100.00
3917;BME280;1973;50.518;7.318;2022-07-04T05:34:02;101451.53;;;15.25;100.00
3917;BME280;1973;50.518;7.318;2022-07-04T05:36:29;101446.13;;;15.30;100.00
3917;BME280;1973;50.518;7.318;2022-07-04T05:38:56;101451.00;;;15.35;100.00
3917;BME280;1973;50.518;7.318;2022-07-04T05:41:23;101453.69;;;15.41;100.00
3917;BME280;1973;50.518;7.318;2022-07-04T05:43:50;101457.69;;;15.45;100.00
3917;BME280;1973;50.518;7.318;2022-07-04T05:46:23;101457.88;;;15.50;100.00
3917;BME280;1973;50.518;7.318;2022-07-04T05:48:50;101455.88;;;15.57;100.00
3917;BME280;1973;50.518;7.318;2022-07-04T05:51:16;101450.78;;;15.73;100.00
3917;BME280;1973;50.518;7.318;2022-07-04T05:53:43;101446.94;;;15.85;100.00
3917;BME280;1973;50.518;7.318;2022-07-04T05:56:09;101451.50;;;15.98;100.00
3917;BME280;1973;50.518;7.318;2022-07-04T05:58:36;101445.50;;;16.13;100.00
3917;BME280;1973;50.518;7.318;2022-07-04T06:01:03;101447.63;;;16.29;100.00
3917;BME280;1973;50.518;7.318;2022-07-04T06:03:29;101441.00;;;16.41;100.00
3917;BME280;1973;50.518;7.318;2022-07-04T06:05:56;101432.69;;;16.53;100.00
3917;BME280;1973;50.518;7.318;2022-07-04T06:08:23;101449.06;;;16.61;100.00
3917;BME280;1973;50.518;7.318;2022-07-04T06:10:50;101446.78;;;16.70;100.00
3917;BME280;1973;50.518;7.318;2022-07-04T06:13:16;101438.06;;;16.78;100.00
3917;BME280;1973;50.518;7.318;2022-07-04T06:15:43;101436.03;;;16.85;100.00
3917;BME280;1973;50.518;7.318;2022-07-04T06:18:09;101444.84;;;16.93;100.00
3917;BME280;1973;50.518;7.318;2022-07-04T06:20:36;101445.06;;;17.03;100.00
3917;BME280;1973;50.518;7.318;2022-07-04T06:23:03;101445.81;;;17.11;100.00
3917;BME280;1973;50.518;7.318;2022-07-04T06:25:30;101447.38;;;17.18;100.00
3917;BME280;1973;50.518;7.318;2022-07-04T06:27:56;101455.69;;;17.30;100.00
3917;BME280;1973;50.518;7.318;2022-07-04T06:30:23;101442.13;;;17.45;100.00
3917;BME280;1973;50.518;7.318;2022-07-04T06:32:51;101446.13;;;17.61;100.00
3917;BME280;1973;50.518;7.318;2022-07-04T06:35:26;101452.25;;;17.74;100.00
3917;BME280;1973;50.518;7.318;2022-07-04T06:38:14;101443.00;;;17.85;100.00
3917;BME280;1973;50.518;7.318;2022-07-04T06:40:41;101439.84;;;17.93;100.00
3917;BME280;1973;50.518;7.318;2022-07-04T06:43:08;101441.88;;;17.98;100.00
3917;BME280;1973;50.518;7.318;2022-07-04T06:45:35;101436.16;;;18.05;100.00
3917;BME280;1973;50.518;7.318;2022-07-04T06:48:05;101435.16;;;18.11;100.00
3917;BME280;1973;50.518;7.318;2022-07-04T06:50:32;101432.47;;;18.16;100.00
3917;BME280;1973;50.518;7.318;2022-07-04T06:53:08;101430.34;;;18.23;100.00
3917;BME280;1973;50.518;7.318;2022-07-04T06:55:36;101431.91;;;18.30;100.00
3917;BME280;1973;50.518;7.318;2022-07-04T06:58:03;101422.53;;;18.36;100.00
3917;BME280;1973;50.518;7.318;2022-07-04T07:00:30;101418.75;;;18.42;100.00
3917;BME280;1973;50.518;7.318;2022-07-04T07:02:58;101419.66;;;18.48;100.00
3917;BME280;1973;50.518;7.318;2022-07-04T07:05:26;101414.78;;;18.55;100.00
3917;BME280;1973;50.518;7.318;2022-07-04T07:08:13;101407.38;;;18.61;100.00
3917;BME280;1973;50.518;7.318;2022-07-04T07:10:39;101412.19;;;18.65;100.00
3917;BME280;1973;50.518;7.318;2022-07-04T07:13:05;101402.78;;;18.71;100.00
3917;BME280;1973;50.518;7.318;2022-07-04T07:15:32;101398.16;;;18.77;100.00
3917;BME280;1973;50.518;7.318;2022-07-04T07:18:02;101398.53;;;18.85;100.00
3917;BME280;1973;50.518;7.318;2022-07-04T07:20:29;101403.13;;;18.91;100.00
3917;BME280;1973;50.518;7.318;2022-07-04T07:22:56;101390.91;;;18.98;100.00
3917;BME280;1973;50.518;7.318;2022-07-04T07:25:22;101400.47;;;19.02;100.00
3917;BME280;1973;50.518;7.318;2022-07-04T07:27:49;101392.69;;;19.04;100.00
3917;BME280;1973;50.518;7.318;2022-07-04T07:30:15;101398.34;;;19.09;100.00
3917;BME280;1973;50.518;7.318;2022-07-04T07:32:42;101390.28;;;19.12;100.00
3917;BME280;1973;50.518;7.318;2022-07-04T07:35:08;101391.22;;;19.18;100.00
3917;BME280;1973;50.518;7.318;2022-07-04T07:37:35;101380.72;;;19.25;100.00
3917;BME280;1973;50.518;7.318;2022-07-04T07:40:01;101380.50;;;19.31;100.00
3917;BME280;1973;50.518;7.318;2022-07-04T07:42:28;101382.00;;;19.39;100.00
3917;BME280;1973;50.518;7.318;2022-07-04T07:44:55;101387.69;;;19.44;100.00
3917;BME280;1973;50.518;7.318;2022-07-04T07:47:22;101382.38;;;19.42;100.00
3917;BME280;1973;50.518;7.318;2022-07-04T07:49:50;101383.78;;;19.45;100.00
3917;BME280;1973;50.518;7.318;2022-07-04T07:52:17;101372.69;;;19.50;100.00
3917;BME280;1973;50.518;7.318;2022-07-04T07:54:43;101377.22;;;19.56;100.00
3917;BME280;1973;50.518;7.318;2022-07-04T07:57:25;101379.25;;;19.61;100.00
3917;BME280;1973;50.518;7.318;2022-07-04T07:59:52;101362.25;;;19.67;100.00
3917;BME280;1973;50.518;7.318;2022-07-04T08:02:18;101371.88;;;19.76;99.84
3917;BME280;1973;50.518;7.318;2022-07-04T08:04:45;101365.75;;;19.79;96.60
3917;BME280;1973;50.518;7.318;2022-07-04T08:07:11;101366.97;;;19.88;96.22
3917;BME280;1973;50.518;7.318;2022-07-04T08:09:48;101367.34;;;19.97;94.32
3917;BME280;1973;50.518;7.318;2022-07-04T08:12:14;101366.25;;;19.98;90.05
3917;BME280;1973;50.518;7.318;2022-07-04T08:14:41;101366.88;;;20.05;89.17
3917;BME280;1973;50.518;7.318;2022-07-04T08:17:07;101365.50;;;20.08;83.40
3917;BME280;1973;50.518;7.318;2022-07-04T08:19:34;101368.91;;;20.15;82.18
3917;BME280;1973;50.518;7.318;2022-07-04T08:22:00;101365.56;;;20.13;75.89
3917;BME280;1973;50.518;7.318;2022-07-04T08:24:43;101367.88;;;20.21;77.54
3917;BME280;1973;50.518;7.318;2022-07-04T08:27:11;101362.28;;;20.21;74.61
3917;BME280;1973;50.518;7.318;2022-07-04T08:29:38;101362.31;;;20.26;73.73
3917;BME280;1973;50.518;7.318;2022-07-04T08:32:05;101369.72;;;20.37;74.90
3917;BME280;1973;50.518;7.318;2022-07-04T08:34:34;101367.03;;;20.47;73.93
3917;BME280;1973;50.518;7.318;2022-07-04T08:37:01;101369.28;;;20.55;72.53
3917;BME280;1973;50.518;7.318;2022-07-04T08:39:28;101371.53;;;20.53;68.23
3917;BME280;1973;50.518;7.318;2022-07-04T08:41:56;101369.09;;;20.62;67.64
3917;BME280;1973;50.518;7.318;2022-07-04T08:44:25;101370.56;;;20.69;66.87
3917;BME280;1973;50.518;7.318;2022-07-04T08:46:54;101372.81;;;20.77;66.50
3917;BME280;1973;50.518;7.318;2022-07-04T08:49:23;101370.38;;;20.86;65.17
3917;BME280;1973;50.518;7.318;2022-07-04T08:52:04;101364.53;;;20.93;60.39
3917;BME280;1973;50.518;7.318;2022-07-04T08:54:32;101358.97;;;20.98;65.74
3917;BME280;1973;50.518;7.318;2022-07-04T08:57:18;101358.47;;;21.06;66.20
3917;BME280;1973;50.518;7.318;2022-07-04T09:00:05;101343.13;;;21.13;62.54
3917;BME280;1973;50.518;7.318;2022-07-04T09:02:34;101350.72;;;21.23;60.49
3917;BME280;1973;50.518;7.318;2022-07-04T09:05:01;101351.63;;;21.28;58.45
3917;BME280;1973;50.518;7.318;2022-07-04T09:07:27;101342.09;;;21.40;57.61
3917;BME280;1973;50.518;7.318;2022-07-04T09:09:57;101340.19;;;21.45;56.42
3917;BME280;1973;50.518;7.318;2022-07-04T09:12:25;101343.59;;;21.57;55.64
3917;BME280;1973;50.518;7.318;2022-07-04T09:14:51;101334.09;;;21.68;54.60
3917;BME280;1973;50.518;7.318;2022-07-04T09:17:24;101330.50;;;21.83;54.46
3917;BME280;1973;50.518;7.318;2022-07-04T09:20:16;101333.63;;;21.97;48.27
3917;BME280;1973;50.518;7.318;2022-07-04T09:22:44;101337.00;;;22.09;52.09
3917;BME280;1973;50.518;7.318;2022-07-04T09:25:11;101336.47;;;22.17;51.28
3917;BME280;1973;50.518;7.318;2022-07-04T09:27:44;101344.88;;;22.27;50.92
3917;BME280;1973;50.518;7.318;2022-07-04T09:30:12;101340.38;;;22.26;51.21
3917;BME280;1973;50.518;7.318;2022-07-04T09:32:44;101342.91;;;22.38;51.23
3917;BME280;1973;50.518;7.318;2022-07-04T09:35:22;101345.69;;;22.48;51.85
3917;BME280;1973;50.518;7.318;2022-07-04T09:37:53;101348.22;;;22.29;49.98
3917;BME280;1973;50.518;7.318;2022-07-04T09:40:24;101342.63;;;22.29;48.72
3917;BME280;1973;50.518;7.318;2022-07-04T09:42:52;101344.88;;;22.37;49.15
3917;BME280;1973;50.518;7.318;2022-07-04T09:45:18;101339.81;;;22.44;49.35
3917;BME280;1973;50.518;7.318;2022-07-04T09:47:47;101340.94;;;22.43;48.73
3917;BME280;1973;50.518;7.318;2022-07-04T09:50:19;101332.50;;;22.48;46.97
3917;BME280;1973;50.518;7.318;2022-07-04T09:55:33;101340.41;;;22.71;48.31
3917;BME280;1973;50.518;7.318;2022-07-04T09:58:02;101336.41;;;22.88;49.31
3917;BME280;1973;50.518;7.318;2022-07-04T10:00:31;101325.75;;;22.95;48.04
3917;BME280;1973;50.518;7.318;2022-07-04T10:03:19;101324.59;;;23.01;44.54
3917;BME280;1973;50.518;7.318;2022-07-04T10:06:06;101311.59;;;23.20;45.54
3917;BME280;1973;50.518;7.318;2022-07-04T10:08:35;101306.47;;;23.37;47.87
3917;BME280;1973;50.518;7.318;2022-07-04T10:11:04;101312.03;;;23.52;47.59
3917;BME280;1973;50.518;7.318;2022-07-04T10:13:36;101303.88;;;23.56;46.61
3917;BME280;1973;50.518;7.318;2022-07-04T10:16:03;101306.94;;;23.59;46.21
3917;BME280;1973;50.518;7.318;2022-07-04T10:18:30;101301.84;;;23.66;45.79
3917;BME280;1973;50.518;7.318;2022-07-04T10:20:57;101297.81;;;23.83;46.32
3917;BME280;1973;50.518;7.318;2022-07-04T10:23:24;101288.09;;;23.99;46.40
3917;BME280;1973;50.518;7.318;2022-07-04T10:25:58;101288.31;;;24.12;45.98
3917;BME280;1973;50.518;7.318;2022-07-04T10:28:25;101275.25;;;24.27;46.35
3917;BME280;1973;50.518;7.318;2022-07-04T10:30:54;101276.28;;;24.36;45.50
3917;BME280;1973;50.518;7.318;2022-07-04T10:33:26;101281.78;;;24.51;45.22
3917;BME280;1973;50.518;7.318;2022-07-04T10:35:58;101276.97;;;24.51;43.03
3917;BME280;1973;50.518;7.318;2022-07-04T10:38:45;101269.56;;;24.60;41.36
3917;BME280;1973;50.518;7.318;2022-07-04T10:41:12;101271.22;;;24.61;43.08
3917;BME280;1973;50.518;7.318;2022-07-04T10:51:50;101265.28;;;24.92;40.23
3917;BME280;1973;50.518;7.318;2022-07-04T10:54:33;101263.19;;;25.02;41.11
3917;BME280;1973;50.518;7.318;2022-07-04T11:00:02;101262.81;;;25.33;40.68
3917;BME280;1973;50.518;7.318;2022-07-04T11:02:31;101264.78;;;25.32;40.56
3917;BME280;1973;50.518;7.318;2022-07-04T11:05:08;101253.53;;;25.51;40.19
3917;BME280;1973;50.518;7.318;2022-07-04T11:17:58;101266.94;;;26.15;39.70
3917;BME280;1973;50.518;7.318;2022-07-04T11:20:26;101265.03;;;26.29;39.13
3917;BME280;1973;50.518;7.318;2022-07-04T11:23:06;101267.13;;;26.37;37.29
3917;BME280;1973;50.518;7.318;2022-07-04T11:25:33;101255.72;;;26.42;39.47
3917;BME280;1973;50.518;7.318;2022-07-04T11:31:05;101248.75;;;26.53;38.53
3917;BME280;1973;50.518;7.318;2022-07-04T11:33:33;101241.16;;;26.68;38.50
3917;BME280;1973;50.518;7.318;2022-07-04T11:38:53;101239.06;;;26.87;37.74
3917;BME280;1973;50.518;7.318;2022-07-04T11:41:23;101249.03;;;26.98;37.13
3917;BME280;1973;50.518;7.318;2022-07-04T11:44:10;101237.81;;;27.06;37.10
3917;BME280;1973;50.518;7.318;2022-07-04T11:47:02;101224.72;;;27.10;34.63
3917;BME280;1973;50.518;7.318;2022-07-04T11:49:29;101240.56;;;27.12;36.51
3917;BME280;1973;50.518;7.318;2022-07-04T11:51:56;101232.97;;;27.21;37.21
3917;BME280;1973;50.518;7.318;2022-07-04T11:54:22;101236.13;;;27.33;37.34
3917;BME280;1973;50.518;7.318;2022-07-04T11:57:09;101222.69;;;27.38;35.73
3917;BME280;1973;50.518;7.318;2022-07-04T11:59:36;101231.63;;;27.45;36.43
3917;BME280;1973;50.518;7.318;2022-07-04T12:02:11;101232.41;;;27.60;37.08
3917;BME280;1973;50.518;7.318;2022-07-04T12:04:38;101227.16;;;27.67;35.92
3917;BME280;1973;50.518;7.318;2022-07-04T12:07:20;101222.63;;;27.66;34.39
3917;BME280;1973;50.518;7.318;2022-07-04T12:09:48;101223.09;;;27.59;35.23
3917;BME280;1973;50.518;7.318;2022-07-04T12:12:15;101226.13;;;27.63;35.87
3917;BME280;1973;50.518;7.318;2022-07-04T12:15:04;101227.25;;;27.75;35.46
3917;BME280;1973;50.518;7.318;2022-07-04T12:17:36;101221.63;;;27.84;35.82
3917;BME280;1973;50.518;7.318;2022-07-04T12:20:23;101224.81;;;28.04;35.81
3917;BME280;1973;50.518;7.318;2022-07-04T12:22:58;101215.28;;;28.23;33.43
3917;BME280;1973;50.518;7.318;2022-07-04T12:25:32;101223.81;;;28.31;35.49
3917;BME280;1973;50.518;7.318;2022-07-04T12:28:03;101214.34;;;28.36;35.10
3917;BME280;1973;50.518;7.318;2022-07-04T12:30:35;101214.69;;;28.34;33.93
3917;BME280;1973;50.518;7.318;2022-07-04T12:33:04;101211.34;;;28.32;33.85
3917;BME280;1973;50.518;7.318;2022-07-04T12:38:28;101206.81;;;28.62;33.92
3917;BME280;1973;50.518;7.318;2022-07-04T12:48:53;101184.16;;;29.10;32.77
3917;BME280;1973;50.518;7.318;2022-07-04T12:51:24;101178.69;;;29.22;32.57
3917;BME280;1973;50.518;7.318;2022-07-04T12:53:53;101175.22;;;29.42;34.45
3917;BME280;1973;50.518;7.318;2022-07-04T12:56:38;101179.06;;;29.72;34.12
3917;BME280;1973;50.518;7.318;2022-07-04T13:01:39;101178.91;;;29.52;32.19
3917;BME280;1973;50.518;7.318;2022-07-04T13:04:07;101170.72;;;29.41;32.12
3917;BME280;1973;50.518;7.318;2022-07-04T13:06:34;101177.56;;;29.40;32.06
3917;BME280;1973;50.518;7.318;2022-07-04T13:09:02;101168.38;;;29.43;31.32
3917;BME280;1973;50.518;7.318;2022-07-04T13:11:29;101170.53;;;29.46;30.96
3917;BME280;1973;50.518;7.318;2022-07-04T13:14:14;101177.91;;;29.47;31.31
3917;BME280;1973;50.518;7.318;2022-07-04T13:16:40;101169.69;;;29.46;31.45
3917;BME280;1973;50.518;7.318;2022-07-04T13:19:07;101173.72;;;29.54;31.89
3917;BME280;1973;50.518;7.318;2022-07-04T13:21:33;101175.06;;;29.73;32.21
3917;BME280;1973;50.518;7.318;2022-07-04T13:24:00;101161.00;;;29.94;31.62
3917;BME280;1973;50.518;7.318;2022-07-04T13:26:26;101167.84;;;30.10;31.64
3917;BME280;1973;50.518;7.318;2022-07-04T13:28:56;101167.63;;;30.32;31.42
3917;BME280;1973;50.518;7.318;2022-07-04T13:31:23;101162.72;;;30.41;31.23
3917;BME280;1973;50.518;7.318;2022-07-04T13:33:49;101169.06;;;30.56;30.62
3917;BME280;1973;50.518;7.318;2022-07-04T13:36:16;101163.28;;;30.73;30.50
3917;BME280;1973;50.518;7.318;2022-07-04T13:38:44;101165.66;;;30.71;30.03
3917;BME280;1973;50.518;7.318;2022-07-04T13:41:33;101158.41;;;30.82;30.02
3917;BME280;1973;50.518;7.318;2022-07-04T13:44:01;101163.75;;;30.75;29.80
3917;BME280;1973;50.518;7.318;2022-07-04T13:46:28;101152.31;;;30.63;29.50
3917;BME280;1973;50.518;7.318;2022-07-04T13:48:55;101143.47;;;30.56;29.75
3917;BME280;1973;50.518;7.318;2022-07-04T13:51:21;101142.09;;;30.62;30.29
3917;BME280;1973;50.518;7.318;2022-07-04T13:53:48;101144.66;;;30.55;29.87
3917;BME280;1973;50.518;7.318;2022-07-04T13:56:15;101153.81;;;30.60;30.32
3917;BME280;1973;50.518;7.318;2022-07-04T13:58:44;101150.44;;;30.67;30.44